Terminal Aerodrome Forecast
Issued by NWS

Current Version | Previous Version | Text Only | Print | Product List | Glossary On
Versions: 1 2 3 4 5 6 7 8 9 10
288
FTUS43 KJKL 072339
TAFSJS
TAF
KSJS 072339Z 0800/0824 23004KT P6SM SCT150
     FM080800 22004KT P6SM BKN040 BKN100
     FM081100 22004KT 5SM -SHRA OVC020
     FM081300 24005KT 2SM -SHRA BR BKN008 OVC015
     FM081600 27007KT P6SM BKN015
     FM082000 27009KT 5SM -SHRA VCTS BKN015CB=

USA.gov is the U.S. government's official web portal to all federal, state and local government web resources and services.